createdAt,value
2022-08-03T00:01:43.096Z,65.42
2022-08-03T00:04:11.109Z,65.53
2022-08-03T00:06:39.461Z,66.59
2022-08-03T00:09:07.521Z,66.86
2022-08-03T00:11:35.711Z,66.43
2022-08-03T00:14:03.686Z,67.01
2022-08-03T00:16:33.573Z,66.89
2022-08-03T00:19:02.223Z,66.83
2022-08-03T00:21:30.278Z,67.12
2022-08-03T00:23:58.086Z,66.63
2022-08-03T00:26:25.951Z,66.59
2022-08-03T00:28:53.959Z,65.67
2022-08-03T00:31:29.697Z,66.25
2022-08-03T00:34:10.948Z,66.80
2022-08-03T00:36:40.695Z,66.12
2022-08-03T00:39:08.643Z,66.47
2022-08-03T00:41:36.535Z,66.93
2022-08-03T00:44:04.886Z,66.84
2022-08-03T00:46:32.859Z,66.95
2022-08-03T00:49:00.738Z,67.39
2022-08-03T00:51:30.030Z,67.49
2022-08-03T00:53:57.817Z,68.76
2022-08-03T00:56:25.775Z,68.67
2022-08-03T00:58:57.886Z,68.87
2022-08-03T01:01:25.759Z,68.92
2022-08-03T01:03:58.578Z,68.38
2022-08-03T01:06:35.102Z,69.00
2022-08-03T01:09:13.508Z,68.62
2022-08-03T01:12:00.469Z,68.14
2022-08-03T01:14:35.274Z,67.69
2022-08-03T01:17:09.565Z,68.18
2022-08-03T01:19:51.565Z,68.15
2022-08-03T01:22:38.299Z,68.49
2022-08-03T01:25:16.261Z,68.32
2022-08-03T01:27:56.015Z,67.96
2022-08-03T01:30:29.071Z,68.20
2022-08-03T01:33:01.993Z,68.06
2022-08-03T01:35:38.589Z,68.19
2022-08-03T01:38:11.064Z,68.50
2022-08-03T01:40:41.760Z,69.07
2022-08-03T01:43:12.455Z,68.89
2022-08-03T01:45:44.876Z,68.58
2022-08-03T01:48:16.908Z,69.13
2022-08-03T01:50:46.150Z,69.96
2022-08-03T01:53:16.447Z,69.42
2022-08-03T01:55:45.535Z,69.76
2022-08-03T01:58:14.684Z,69.13
2022-08-03T02:00:47.287Z,68.93
2022-08-03T02:03:17.430Z,69.81
2022-08-03T02:05:46.779Z,69.92
2022-08-03T02:08:16.903Z,69.62
2022-08-03T02:10:46.159Z,68.83
2022-08-03T02:13:16.260Z,69.00
2022-08-03T02:15:45.872Z,69.65
2022-08-03T02:18:15.545Z,69.09
2022-08-03T02:20:45.030Z,69.52
2022-08-03T02:23:13.493Z,69.45
2022-08-03T02:25:45.863Z,69.62
2022-08-03T02:28:19.112Z,69.57
2022-08-03T02:30:53.724Z,69.25
2022-08-03T02:33:28.542Z,69.44
2022-08-03T02:35:58.637Z,69.93
2022-08-03T02:38:29.845Z,70.08
2022-08-03T02:40:59.916Z,69.86
2022-08-03T02:43:56.832Z,70.10
2022-08-03T02:46:22.010Z,70.27
2022-08-03T02:48:53.089Z,70.24
2022-08-03T02:51:22.323Z,69.50
2022-08-03T02:53:51.820Z,69.10
2022-08-03T02:56:20.639Z,69.18
2022-08-03T02:58:50.995Z,68.83
2022-08-03T03:01:21.488Z,68.35
2022-08-03T03:03:50.852Z,68.74
2022-08-03T03:06:20.507Z,68.84
2022-08-03T03:08:56.626Z,68.81
2022-08-03T03:11:27.911Z,69.36
2022-08-03T03:13:58.120Z,69.29
2022-08-03T03:16:28.072Z,68.81
2022-08-03T03:18:56.354Z,69.43
2022-08-03T03:21:25.082Z,69.00
2022-08-03T03:23:53.877Z,70.19
2022-08-03T03:26:21.912Z,69.46
2022-08-03T03:28:50.085Z,69.92
2022-08-03T03:31:17.941Z,70.12
2022-08-03T03:33:47.614Z,70.41
2022-08-03T03:36:15.841Z,69.81
2022-08-03T03:38:43.711Z,69.46
2022-08-03T03:41:11.620Z,69.12
2022-08-03T03:43:39.545Z,68.85
2022-08-03T03:46:07.434Z,68.97
2022-08-03T03:48:35.558Z,68.75
2022-08-03T03:51:04.921Z,68.54
2022-08-03T03:53:32.785Z,69.06
2022-08-03T03:56:02.893Z,69.69
2022-08-03T03:58:32.612Z,69.32
2022-08-03T04:01:01.272Z,69.71
2022-08-03T04:03:29.247Z,69.56
2022-08-03T04:06:15.573Z,69.13
2022-08-03T04:09:02.119Z,69.26
2022-08-03T04:11:33.226Z,68.44
2022-08-03T04:14:07.394Z,69.13
2022-08-03T04:16:43.172Z,69.03
2022-08-03T04:19:17.479Z,69.38
2022-08-03T04:21:52.924Z,68.51
2022-08-03T04:24:26.587Z,68.60
2022-08-03T04:26:55.754Z,68.49
2022-08-03T04:29:23.492Z,68.79
2022-08-03T04:31:53.268Z,69.22
2022-08-03T04:34:21.163Z,69.39
2022-08-03T04:36:51.336Z,68.82
2022-08-03T04:39:26.574Z,69.14
2022-08-03T04:42:17.081Z,68.77
2022-08-03T04:44:46.283Z,69.16
2022-08-03T04:47:14.196Z,69.10
2022-08-03T04:49:42.594Z,69.27
2022-08-03T04:52:11.219Z,68.72
2022-08-03T04:54:50.129Z,69.00
2022-08-03T04:57:22.999Z,68.89
2022-08-03T04:59:58.211Z,69.08
2022-08-03T05:02:29.848Z,68.87
2022-08-03T05:04:57.853Z,68.61
2022-08-03T05:07:25.769Z,68.68
2022-08-03T05:09:57.654Z,68.31
2022-08-03T05:12:32.794Z,68.27
2022-08-03T05:15:01.404Z,67.35
2022-08-03T05:17:29.584Z,66.50
2022-08-03T05:19:57.632Z,64.69
2022-08-03T05:22:25.425Z,63.23
2022-08-03T05:24:53.285Z,62.15
2022-08-03T05:27:22.540Z,60.72
2022-08-03T05:29:51.473Z,59.75
2022-08-03T05:32:19.501Z,58.61
2022-08-03T05:34:47.689Z,57.07
2022-08-03T05:37:15.420Z,56.40
2022-08-03T05:39:43.356Z,55.23
2022-08-03T05:42:11.677Z,54.41
2022-08-03T05:44:42.053Z,52.22
2022-08-03T05:47:09.913Z,52.04
2022-08-03T05:49:37.796Z,51.21
2022-08-03T05:52:21.863Z,51.16
2022-08-03T05:54:56.199Z,50.90
2022-08-03T05:57:25.741Z,50.06
2022-08-03T05:59:58.347Z,49.51
2022-08-03T06:02:27.124Z,47.99
2022-08-03T06:04:55.043Z,47.12
2022-08-03T06:07:22.997Z,47.23
2022-08-03T06:10:34.491Z,45.40
2022-08-03T06:12:41.108Z,45.07
2022-08-03T06:15:11.738Z,44.53
2022-08-03T06:17:47.064Z,44.25
2022-08-03T06:20:16.909Z,42.66
2022-08-03T06:22:50.765Z,41.64
2022-08-03T06:25:19.387Z,40.06
2022-08-03T06:27:49.237Z,40.44
2022-08-03T06:30:21.269Z,39.68
2022-08-03T06:32:51.748Z,38.94
2022-08-03T06:35:20.546Z,40.08
2022-08-03T06:37:49.025Z,39.67
2022-08-03T06:40:21.890Z,38.51
2022-08-03T06:42:52.540Z,38.22
2022-08-03T06:45:21.943Z,36.60
2022-08-03T06:48:01.587Z,35.38
2022-08-03T06:50:29.653Z,35.60
2022-08-03T06:52:57.342Z,35.00
2022-08-03T06:55:25.503Z,34.83
2022-08-03T06:57:53.283Z,35.09
2022-08-03T07:00:22.404Z,34.75
2022-08-03T07:02:52.629Z,34.50
2022-08-03T07:05:24.057Z,33.68
2022-08-03T07:07:51.925Z,33.99
2022-08-03T07:10:19.752Z,34.81
2022-08-03T07:12:55.875Z,36.06
2022-08-03T07:15:55.082Z,35.83
2022-08-03T07:18:14.340Z,36.02
2022-08-03T07:20:42.305Z,36.57
2022-08-03T07:23:11.975Z,36.78
2022-08-03T07:25:47.203Z,38.16
2022-08-03T07:28:15.057Z,39.33
2022-08-03T07:30:44.345Z,39.43
2022-08-03T07:33:12.211Z,38.77
2022-08-03T07:35:40.065Z,37.15
2022-08-03T07:38:07.964Z,36.18
2022-08-03T07:40:35.892Z,35.85
2022-08-03T07:43:04.967Z,35.06
2022-08-03T07:45:33.231Z,34.42
2022-08-03T07:48:02.471Z,33.13
2022-08-03T07:50:30.409Z,31.81
2022-08-03T07:52:59.708Z,30.33
2022-08-03T07:55:28.634Z,30.83
2022-08-03T07:58:10.014Z,30.16
2022-08-03T08:00:37.988Z,30.41
2022-08-03T08:03:07.082Z,29.76
2022-08-03T08:05:34.998Z,29.40
2022-08-03T08:08:03.673Z,29.14
2022-08-03T08:10:32.665Z,28.82
2022-08-03T08:13:01.695Z,30.08
2022-08-03T08:15:29.907Z,29.81
2022-08-03T08:17:59.759Z,29.15
2022-08-03T08:20:31.828Z,29.43
2022-08-03T08:23:02.050Z,29.53
2022-08-03T08:25:32.326Z,29.20
2022-08-03T08:28:29.371Z,29.21
2022-08-03T08:30:50.770Z,29.25
2022-08-03T08:33:23.009Z,29.51
2022-08-03T08:35:54.458Z,29.47
2022-08-03T08:38:23.201Z,29.93
2022-08-03T08:40:51.486Z,29.47
2022-08-03T08:43:19.352Z,29.80
2022-08-03T08:45:48.386Z,30.45
2022-08-03T08:48:18.829Z,29.15
2022-08-03T08:50:46.898Z,28.40
2022-08-03T08:53:18.354Z,28.43
2022-08-03T08:55:59.270Z,28.66
2022-08-03T08:58:30.986Z,28.35
2022-08-03T09:00:58.906Z,28.23
2022-08-03T09:03:30.291Z,28.60
2022-08-03T09:06:01.460Z,28.82
2022-08-03T09:08:32.743Z,28.44
2022-08-03T09:11:00.808Z,29.94
2022-08-03T09:13:29.114Z,29.27
2022-08-03T09:16:19.020Z,29.29
2022-08-03T09:18:49.145Z,28.21
2022-08-03T09:21:35.513Z,28.85
2022-08-03T09:24:10.500Z,28.65
2022-08-03T09:26:52.162Z,28.55
2022-08-03T09:29:22.105Z,28.08
2022-08-03T09:31:49.920Z,27.48
2022-08-03T09:34:19.488Z,27.30
2022-08-03T09:36:48.491Z,26.68
2022-08-03T09:39:19.441Z,27.62
2022-08-03T09:41:48.720Z,28.68
2022-08-03T09:44:24.912Z,29.55
2022-08-03T09:46:56.202Z,29.19
2022-08-03T09:49:25.197Z,29.32
2022-08-03T09:52:31.859Z,29.67
2022-08-03T09:54:44.063Z,30.09
2022-08-03T09:57:23.732Z,30.15
2022-08-03T09:59:54.997Z,30.01
2022-08-03T10:02:40.984Z,29.35
2022-08-03T10:05:10.780Z,29.76
2022-08-03T10:07:49.823Z,30.27
2022-08-03T10:10:30.318Z,31.38
2022-08-03T10:12:59.220Z,30.90
2022-08-03T10:16:23.069Z,30.93
2022-08-03T10:18:15.324Z,31.19
2022-08-03T10:20:44.904Z,30.90
2022-08-03T10:23:14.525Z,30.15
2022-08-03T10:25:47.646Z,29.81
2022-08-03T10:28:19.315Z,30.33
2022-08-03T10:30:50.698Z,29.76
2022-08-03T10:33:51.371Z,30.08
2022-08-03T10:36:11.736Z,30.67
2022-08-03T10:38:52.425Z,30.53
2022-08-03T10:41:22.841Z,30.10
2022-08-03T10:43:57.481Z,30.50
2022-08-03T10:46:27.211Z,30.25
2022-08-03T10:48:56.539Z,30.06
2022-08-03T10:51:25.287Z,30.91
2022-08-03T10:53:55.088Z,30.55
2022-08-03T10:57:04.134Z,29.74
2022-08-03T11:00:03.687Z,29.93
2022-08-03T11:03:08.784Z,29.58
2022-08-03T11:05:41.894Z,30.52
2022-08-03T11:08:35.442Z,30.19
2022-08-03T11:11:24.993Z,29.43
2022-08-03T11:14:03.174Z,29.70
2022-08-03T11:16:34.973Z,28.88
2022-08-03T11:19:04.866Z,28.98
2022-08-03T11:21:58.117Z,28.79
2022-08-03T11:25:00.244Z,29.19
2022-08-03T11:27:30.304Z,29.60
2022-08-03T11:30:03.067Z,29.34
2022-08-03T11:32:53.701Z,30.19
2022-08-03T11:35:23.510Z,29.67
2022-08-03T11:38:07.192Z,29.67
2022-08-03T11:40:37.073Z,28.77
2022-08-03T11:43:05.546Z,29.60
2022-08-03T11:45:35.472Z,29.68
2022-08-03T11:48:14.833Z,30.10
2022-08-03T11:50:45.215Z,30.43
2022-08-03T11:53:17.916Z,30.13
2022-08-03T11:55:48.922Z,29.86
2022-08-03T11:59:01.067Z,29.15
2022-08-03T12:01:08.716Z,29.54
2022-08-03T12:03:37.250Z,29.30
2022-08-03T12:06:10.587Z,29.75
2022-08-03T12:08:38.461Z,29.94
2022-08-03T12:11:08.995Z,29.94
2022-08-03T12:14:08.891Z,29.89
2022-08-03T12:16:30.910Z,29.79
2022-08-03T12:19:00.879Z,29.72
2022-08-03T12:21:29.455Z,30.69
2022-08-03T12:23:58.958Z,31.19
2022-08-03T12:26:27.504Z,31.37
2022-08-03T12:28:55.611Z,31.88
2022-08-03T12:31:23.638Z,31.80
2022-08-03T12:34:01.821Z,30.70
2022-08-03T12:36:30.781Z,31.34
2022-08-03T12:39:00.322Z,30.47
2022-08-03T12:41:34.122Z,31.25
2022-08-03T12:44:03.585Z,30.63
2022-08-03T12:46:33.787Z,31.07
2022-08-03T12:49:11.222Z,31.31
2022-08-03T12:51:56.316Z,31.71
2022-08-03T12:54:26.020Z,31.52
2022-08-03T12:57:04.468Z,31.62
2022-08-03T12:59:40.345Z,31.80
2022-08-03T13:02:16.252Z,31.92
2022-08-03T13:04:48.035Z,32.26
2022-08-03T13:07:18.037Z,31.58
2022-08-03T13:09:47.921Z,31.86
2022-08-03T13:12:17.133Z,32.26
2022-08-03T13:14:46.146Z,32.47
2022-08-03T13:17:14.197Z,32.91
2022-08-03T13:19:42.338Z,32.97
2022-08-03T13:22:16.203Z,32.64
2022-08-03T13:24:45.871Z,32.84
2022-08-03T13:27:23.366Z,32.64
2022-08-03T13:30:02.212Z,34.10
2022-08-03T13:32:30.076Z,33.61
2022-08-03T13:34:57.949Z,34.30
2022-08-03T13:37:27.865Z,34.62
2022-08-03T13:39:59.011Z,34.84
2022-08-03T13:42:29.674Z,33.95
2022-08-03T13:44:57.660Z,33.83
2022-08-03T13:47:25.763Z,34.00
2022-08-03T13:49:54.354Z,33.67
2022-08-03T13:52:30.191Z,34.33
2022-08-03T13:54:58.493Z,35.28
2022-08-03T13:58:02.454Z,35.86
2022-08-03T14:00:26.632Z,35.72
2022-08-03T14:03:02.949Z,36.15
2022-08-03T14:05:33.735Z,36.26
2022-08-03T14:08:05.360Z,35.96
2022-08-03T14:10:34.752Z,35.53
2022-08-03T14:13:02.648Z,34.95
2022-08-03T14:15:30.584Z,35.09
2022-08-03T14:17:59.111Z,34.70
2022-08-03T14:20:38.632Z,34.97
2022-08-03T14:23:16.985Z,35.03
2022-08-03T14:25:52.539Z,35.68
2022-08-03T14:28:23.305Z,35.64
2022-08-03T14:30:51.641Z,35.52
2022-08-03T14:33:19.583Z,35.65
2022-08-03T14:35:47.721Z,35.69
2022-08-03T14:38:17.199Z,35.73
2022-08-03T14:40:45.261Z,35.89
2022-08-03T14:43:13.507Z,35.76
2022-08-03T14:45:42.090Z,36.15
2022-08-03T14:50:31.464Z,35.98
2022-08-03T14:50:58.102Z,35.68
2022-08-03T14:53:28.705Z,35.97
2022-08-03T14:55:56.796Z,35.85
2022-08-03T14:58:26.799Z,35.74
2022-08-03T15:00:55.954Z,36.05
2022-08-03T15:03:25.317Z,35.80
2022-08-03T15:05:53.977Z,36.04
2022-08-03T15:08:22.656Z,36.81
2022-08-03T15:10:52.185Z,35.86
2022-08-03T15:13:20.905Z,35.62
2022-08-03T15:15:49.599Z,35.99
2022-08-03T15:18:17.625Z,36.15
2022-08-03T15:20:46.843Z,35.90
2022-08-03T15:23:15.979Z,36.17
2022-08-03T15:26:28.792Z,36.25
2022-08-03T15:28:34.446Z,36.55
2022-08-03T15:31:05.291Z,36.84
2022-08-03T15:33:33.326Z,36.29
2022-08-03T15:36:03.609Z,36.25
2022-08-03T15:38:31.564Z,36.52
2022-08-03T15:40:59.432Z,37.13
2022-08-03T15:43:27.301Z,36.80
2022-08-03T15:46:27.870Z,36.94
2022-08-03T15:48:44.351Z,36.63
2022-08-03T15:51:12.366Z,36.66
2022-08-03T15:53:40.638Z,37.24
2022-08-03T15:56:13.318Z,37.25
2022-08-03T15:59:04.271Z,37.48
2022-08-03T16:01:33.883Z,37.81
2022-08-03T16:04:04.447Z,37.74
2022-08-03T16:06:35.843Z,37.75
2022-08-03T16:09:24.039Z,38.05
2022-08-03T16:11:55.103Z,37.78
2022-08-03T16:14:34.341Z,37.86
2022-08-03T16:17:07.340Z,37.91
2022-08-03T16:19:35.638Z,37.84
2022-08-03T16:22:03.461Z,37.98
2022-08-03T16:24:31.778Z,37.97
2022-08-03T16:27:00.797Z,37.91
2022-08-03T16:29:29.327Z,38.25
2022-08-03T16:31:57.240Z,38.05
2022-08-03T16:34:26.474Z,38.27
2022-08-03T16:36:54.615Z,38.50
2022-08-03T16:39:22.590Z,39.04
2022-08-03T16:41:54.078Z,38.28
2022-08-03T16:44:30.005Z,38.69
2022-08-03T16:46:57.927Z,38.61
2022-08-03T16:49:52.834Z,38.65
2022-08-03T16:52:16.523Z,38.11
2022-08-03T16:54:53.078Z,38.51
2022-08-03T16:57:31.886Z,38.56
2022-08-03T17:00:12.151Z,38.90
2022-08-03T17:03:00.874Z,38.95
2022-08-03T17:05:47.287Z,38.98
2022-08-03T17:08:15.735Z,39.47
2022-08-03T17:10:45.056Z,39.19
2022-08-03T17:13:21.810Z,38.87
2022-08-03T17:16:04.938Z,39.31
2022-08-03T17:18:38.708Z,39.59
2022-08-03T17:21:12.226Z,39.52
2022-08-03T17:23:45.300Z,39.44
2022-08-03T17:26:21.560Z,39.93
2022-08-03T17:28:56.481Z,40.01
2022-08-03T17:31:31.431Z,39.69
2022-08-03T17:34:00.981Z,40.03
2022-08-03T17:37:02.263Z,40.18
2022-08-03T17:39:35.865Z,39.96
2022-08-03T17:42:30.814Z,40.24
2022-08-03T17:44:58.303Z,40.55
2022-08-03T17:47:42.133Z,40.19
2022-08-03T17:50:24.297Z,40.78
2022-08-03T17:53:01.394Z,40.78
2022-08-03T17:55:54.958Z,40.73
2022-08-03T17:58:39.685Z,40.77
2022-08-03T18:02:03.134Z,41.07
2022-08-03T18:04:30.391Z,41.00
2022-08-03T18:07:11.311Z,41.28
2022-08-03T18:12:51.586Z,41.34
2022-08-03T18:15:25.295Z,41.90
2022-08-03T18:23:36.547Z,42.71
2022-08-03T18:26:10.687Z,42.68
2022-08-03T18:28:40.544Z,42.97
2022-08-03T18:31:10.083Z,43.52
2022-08-03T18:34:17.447Z,44.00
2022-08-03T18:36:31.172Z,44.01
2022-08-03T18:39:02.731Z,44.17
2022-08-03T18:41:34.712Z,44.70
2022-08-03T18:44:07.812Z,44.88
2022-08-03T18:46:48.667Z,45.13
2022-08-03T18:49:29.636Z,45.31
2022-08-03T18:52:04.825Z,45.58
2022-08-03T18:55:02.421Z,45.79
2022-08-03T18:57:40.332Z,46.31
2022-08-03T19:00:14.248Z,46.45
2022-08-03T19:02:49.345Z,46.74
2022-08-03T19:05:24.646Z,47.24
2022-08-03T19:08:17.328Z,47.40
2022-08-03T19:10:57.651Z,47.78
2022-08-03T19:13:36.031Z,47.70
2022-08-03T19:16:04.654Z,48.22
2022-08-03T19:18:38.809Z,48.46
2022-08-03T19:21:15.492Z,48.38
2022-08-03T19:23:46.172Z,48.42
2022-08-03T19:26:30.615Z,49.90
2022-08-03T19:29:00.547Z,48.80
2022-08-03T19:31:31.127Z,50.23
2022-08-03T19:34:04.128Z,49.38
2022-08-03T19:36:40.510Z,49.39
2022-08-03T19:39:12.605Z,50.03
2022-08-03T19:41:42.924Z,49.47
2022-08-03T19:44:27.106Z,49.56
2022-08-03T19:46:58.821Z,49.81
2022-08-03T19:50:05.264Z,50.03
2022-08-03T19:52:20.564Z,50.36
2022-08-03T19:54:54.695Z,51.42
2022-08-03T19:57:25.834Z,50.91
2022-08-03T19:59:58.204Z,50.78
2022-08-03T20:02:27.977Z,51.08
2022-08-03T20:04:59.952Z,50.86
2022-08-03T20:07:30.723Z,50.75
2022-08-03T20:09:59.575Z,51.87
2022-08-03T20:12:34.410Z,51.75
2022-08-03T20:15:10.558Z,51.93
2022-08-03T20:17:54.933Z,52.16
2022-08-03T20:20:28.143Z,51.62
2022-08-03T20:22:59.138Z,52.40
2022-08-03T20:28:26.815Z,52.01
2022-08-03T20:30:56.322Z,52.32
2022-08-03T20:36:12.581Z,54.18
2022-08-03T20:38:47.309Z,54.05
2022-08-03T20:41:15.877Z,53.70
2022-08-03T20:43:43.823Z,53.68
2022-08-03T20:46:38.243Z,53.92
2022-08-03T20:49:05.112Z,54.33
2022-08-03T20:51:49.972Z,54.52
2022-08-03T20:54:29.411Z,54.44
2022-08-03T20:56:59.231Z,55.06
2022-08-03T20:59:36.937Z,54.73
2022-08-03T21:02:30.018Z,54.75
2022-08-03T21:05:03.672Z,54.61
2022-08-03T21:08:04.422Z,55.71
2022-08-03T21:10:31.853Z,55.99
2022-08-03T21:12:57.103Z,41.75
2022-08-03T21:12:57.498Z,41.88
2022-08-03T21:12:57.779Z,41.94
2022-08-03T21:13:06.786Z,51.86
2022-08-03T21:13:14.083Z,52.46
2022-08-03T21:13:16.232Z,55.31
2022-08-03T21:16:01.125Z,56.06
2022-08-03T21:18:42.128Z,55.72
2022-08-03T21:21:14.753Z,56.16
2022-08-03T21:23:47.813Z,55.90
2022-08-03T21:26:17.644Z,56.04
2022-08-03T21:28:47.021Z,56.13
2022-08-03T21:31:24.479Z,55.94
2022-08-03T21:33:59.028Z,55.76
2022-08-03T21:36:28.416Z,56.25
2022-08-03T21:38:57.380Z,57.56
2022-08-03T21:41:26.790Z,57.61
2022-08-03T21:43:54.751Z,58.05
2022-08-03T21:46:23.676Z,58.37
2022-08-03T21:48:54.590Z,58.79
2022-08-03T21:51:26.660Z,58.82
2022-08-03T21:54:02.962Z,59.19
2022-08-03T21:56:37.152Z,59.39
2022-08-03T21:59:06.839Z,59.42
2022-08-03T22:01:36.690Z,58.82
2022-08-03T22:04:07.077Z,59.98
2022-08-03T22:06:36.656Z,60.05
2022-08-03T22:09:07.270Z,60.48
2022-08-03T22:11:35.566Z,60.20
2022-08-03T22:14:04.082Z,60.31
2022-08-03T22:16:32.345Z,60.49
2022-08-03T22:19:00.244Z,61.01
2022-08-03T22:21:36.164Z,61.58
2022-08-03T22:24:07.586Z,61.41
2022-08-03T22:26:36.798Z,62.23
2022-08-03T22:29:08.515Z,61.99
2022-08-03T22:31:58.315Z,62.01
2022-08-03T22:34:26.754Z,62.33
2022-08-03T22:36:57.885Z,62.15
2022-08-03T22:39:30.987Z,62.52
2022-08-03T22:41:59.707Z,62.28
2022-08-03T22:44:28.412Z,62.76
2022-08-03T22:46:56.652Z,63.07
2022-08-03T22:49:25.250Z,63.44
2022-08-03T22:51:54.423Z,63.25
2022-08-03T22:54:22.261Z,63.15
2022-08-03T22:56:52.592Z,63.58
2022-08-03T22:59:40.048Z,63.44
2022-08-03T23:02:16.028Z,63.06
2022-08-03T23:04:51.941Z,63.44
2022-08-03T23:07:23.038Z,63.73
2022-08-03T23:09:51.466Z,63.52
2022-08-03T23:12:21.000Z,63.64
2022-08-03T23:14:54.156Z,63.71
2022-08-03T23:17:23.974Z,64.01
2022-08-03T23:19:53.694Z,64.69
2022-08-03T23:22:29.895Z,64.46
2022-08-03T23:24:59.369Z,64.48
2022-08-03T23:27:29.365Z,64.47
2022-08-03T23:29:59.013Z,64.29
2022-08-03T23:32:27.535Z,64.89
2022-08-03T23:35:16.384Z,64.46
2022-08-03T23:38:04.276Z,65.36
2022-08-03T23:40:34.439Z,64.95
2022-08-03T23:43:04.378Z,64.67
2022-08-03T23:45:36.148Z,64.71
2022-08-03T23:48:04.002Z,64.72
2022-08-03T23:50:41.412Z,64.95
2022-08-03T23:53:13.408Z,65.08
2022-08-03T23:55:54.852Z,65.37
2022-08-03T23:58:38.408Z,65.64
